Time;durP1;ratioP1;P1;durP2;ratioP2;P2;SDS_P1;SDS_P2;PMS_P1;PMS_P2;Temp;Humidity;BMP_temperature;BMP_pressure;BME280_temperature;BME280_humidity;BME280_pressure;Samples;Min_cycle;Max_cycle;Signal;HPM_P1;HPM_P2
2021/12/24 00:02:12;;;;;;;27.23;9.65;;;6.40;99.90;;;;;;5052982;28;20033;-39
2021/12/24 00:04:37;;;;;;;29.02;10.13;;;6.40;99.90;;;;;;5052922;28;20028;-40
2021/12/24 00:07:03;;;;;;;23.20;9.40;;;6.40;99.90;;;;;;5049850;28;20029;-38
2021/12/24 00:09:32;;;;;;;22.40;8.88;;;6.40;99.90;;;;;;5032850;28;20030;-39
2021/12/24 00:12:01;;;;;;;24.70;10.48;;;6.40;99.90;;;;;;5032870;28;20362;-38
2021/12/24 00:14:28;;;;;;;31.00;10.32;;;6.40;99.90;;;;;;5032171;28;20026;-38
2021/12/24 00:16:58;;;;;;;23.80;9.40;;;6.40;99.90;;;;;;5033676;28;20033;-38
2021/12/24 00:19:59;;;;;;;23.05;9.27;;;6.50;99.90;;;;;;5052721;28;20404;-38
2021/12/24 00:22:29;;;;;;;21.20;7.72;;;6.50;99.90;;;;;;5051976;28;20354;-39
2021/12/24 00:35:51;;;;;;;18.58;8.27;;;6.60;99.90;;;;;;5032524;28;20052;-39
2021/12/24 00:38:16;;;;;;;25.65;9.15;;;6.60;99.90;;;;;;5046751;28;20033;-39
2021/12/24 00:40:45;;;;;;;24.50;8.80;;;6.60;99.90;;;;;;5052529;28;20025;-39
2021/12/24 00:43:13;;;;;;;23.02;8.43;;;6.60;99.90;;;;;;5052164;28;20025;-38
2021/12/24 00:45:42;;;;;;;24.27;8.30;;;6.70;99.90;;;;;;5052367;28;20060;-38
2021/12/24 00:48:13;;;;;;;21.42;8.27;;;6.70;99.90;;;;;;5039221;28;20682;-38
2021/12/24 00:50:56;;;;;;;19.20;9.05;;;6.70;99.90;;;;;;5032050;28;20485;-38
2021/12/24 00:56:04;;;;;;;13.52;6.70;;;6.80;99.90;;;;;;5034328;28;20053;-38
2021/12/24 00:58:30;;;;;;;12.45;5.63;;;6.80;99.90;;;;;;5037298;28;20068;-39
2021/12/24 01:00:56;;;;;;;11.13;5.70;;;6.80;99.90;;;;;;5036433;28;20041;-39
2021/12/24 01:03:22;;;;;;;19.05;6.13;;;6.90;99.90;;;;;;5035672;28;20129;-38
2021/12/24 01:05:47;;;;;;;13.18;6.32;;;6.90;99.90;;;;;;5036186;28;20041;-38
2021/12/24 01:08:14;;;;;;;13.77;5.68;;;6.90;99.90;;;;;;5048896;28;20032;-39
2021/12/24 01:10:45;;;;;;;11.65;5.75;;;6.90;99.90;;;;;;5055459;28;20104;-38
2021/12/24 01:13:11;;;;;;;11.48;5.80;;;6.90;99.90;;;;;;5056043;28;20114;-39
2021/12/24 01:15:42;;;;;;;9.45;5.07;;;7.00;99.90;;;;;;5055812;28;20507;-40
2021/12/24 01:18:17;;;;;;;11.75;5.10;;;7.00;99.90;;;;;;5042689;28;20047;-38
2021/12/24 01:20:48;;;;;;;8.23;4.20;;;7.00;99.90;;;;;;5035841;28;20025;-39
2021/12/24 01:25:54;;;;;;;7.70;4.22;;;7.10;99.90;;;;;;5035282;28;20033;-38
2021/12/24 01:39:27;;;;;;;7.82;4.25;;;7.20;99.90;;;;;;5015706;28;20049;-38
2021/12/24 01:44:37;;;;;;;7.05;3.45;;;7.30;99.90;;;;;;5015716;28;20408;-39
2021/12/24 01:47:06;;;;;;;8.65;4.07;;;7.30;99.90;;;;;;5025091;28;20441;-38
2021/12/24 01:49:32;;;;;;;;;;;7.40;99.90;;;;;;5055308;28;20049;-39
2021/12/24 01:51:58;;;;;;;8.05;4.28;;;7.30;99.90;;;;;;5054824;28;19959;-39
2021/12/24 01:54:25;;;;;;;8.63;4.20;;;7.40;99.90;;;;;;5055027;28;20021;-39
2021/12/24 01:56:51;;;;;;;5.22;3.65;;;7.40;99.90;;;;;;5051081;28;20471;-38
2021/12/24 01:59:16;;;;;;;6.78;3.55;;;7.40;99.90;;;;;;5034788;28;20068;-39
2021/12/24 02:01:42;;;;;;;7.65;3.72;;;7.40;99.90;;;;;;5035026;28;20027;-38
2021/12/24 02:04:11;;;;;;;6.15;2.90;;;7.40;99.90;;;;;;5035188;28;20032;-39
2021/12/24 02:06:38;;;;;;;5.93;3.17;;;7.50;99.90;;;;;;5037403;28;20025;-39
2021/12/24 02:09:03;;;;;;;4.40;2.72;;;7.50;99.90;;;;;;5053149;28;20025;-38
2021/12/24 02:11:29;;;;;;;6.07;3.15;;;7.50;99.90;;;;;;5054699;28;20033;-39
2021/12/24 02:13:55;;;;;;;6.57;3.90;;;7.50;99.90;;;;;;5054437;28;20163;-38
2021/12/24 02:16:45;;;;;;;5.85;3.22;;;7.60;99.90;;;;;;5053164;28;20388;-39
2021/12/24 02:30:07;;;;;;;5.20;2.72;;;7.70;99.90;;;;;;5054933;28;20502;-39
2021/12/24 02:32:33;;;;;;;5.88;2.95;;;7.70;99.90;;;;;;5051385;28;20415;-39
2021/12/24 02:35:00;;;;;;;3.75;2.25;;;7.80;99.90;;;;;;5034184;28;20469;-39
2021/12/24 02:37:26;;;;;;;5.82;3.22;;;7.70;99.90;;;;;;5034325;28;20083;-39
2021/12/24 02:39:51;;;;;;;4.65;3.05;;;7.80;99.90;;;;;;5034422;28;20026;-39
2021/12/24 02:42:20;;;;;;;4.65;2.65;;;7.80;99.90;;;;;;5036425;28;20178;-39
2021/12/24 02:44:48;;;;;;;4.40;2.60;;;7.80;99.90;;;;;;5050300;28;20032;-39
2021/12/24 02:55:09;;;;;;;6.32;3.08;;;7.90;99.90;;;;;;5034177;28;20585;-39
2021/12/24 02:57:37;;;;;;;6.03;2.58;;;7.90;99.90;;;;;;5033658;28;20072;-38
2021/12/24 03:00:19;;;;;;;4.63;2.42;;;7.90;99.90;;;;;;5034094;28;20458;-38
2021/12/24 03:02:45;;;;;;;4.15;2.13;;;8.00;99.90;;;;;;5046126;28;20029;-38
2021/12/24 03:05:13;;;;;;;6.85;2.83;;;8.00;99.90;;;;;;5053864;28;20108;-38
2021/12/24 03:07:39;;;;;;;6.53;2.40;;;8.00;99.90;;;;;;5053481;28;20048;-38
2021/12/24 03:10:06;;;;;;;3.80;2.45;;;8.00;99.90;;;;;;5053302;28;20480;-38
2021/12/24 03:12:32;;;;;;;3.80;2.05;;;8.10;99.90;;;;;;5040738;28;20061;-38
2021/12/24 03:14:57;;;;;;;4.50;2.38;;;8.20;99.90;;;;;;5033863;28;20017;-39
2021/12/24 03:17:25;;;;;;;5.90;2.53;;;8.20;99.90;;;;;;5032372;28;20036;-38
2021/12/24 03:19:53;;;;;;;2.80;2.07;;;8.20;99.90;;;;;;5033630;28;20044;-37
2021/12/24 03:25:04;;;;;;;2.83;1.88;;;8.30;99.90;;;;;;5053328;28;20484;-38
2021/12/24 03:27:29;;;;;;;6.38;2.30;;;8.40;99.90;;;;;;5053326;28;20526;-38
2021/12/24 03:29:57;;;;;;;5.32;2.90;;;8.40;99.90;;;;;;5053397;28;20021;-37
2021/12/24 03:32:23;;;;;;;3.05;1.98;;;8.50;99.90;;;;;;5042247;28;20048;-38
2021/12/24 03:34:48;;;;;;;5.35;2.92;;;8.60;99.90;;;;;;5033399;28;20632;-38
2021/12/24 03:37:14;;;;;;;7.70;3.13;;;8.60;99.90;;;;;;5033323;28;20376;-39
2021/12/24 03:39:39;;;;;;;4.03;1.80;;;8.60;99.90;;;;;;5032861;28;20025;-38
2021/12/24 03:42:05;;;;;;;6.55;3.60;;;8.70;99.90;;;;;;5040593;28;20121;-38
2021/12/24 03:44:36;;;;;;;4.28;2.67;;;8.70;99.90;;;;;;5052598;28;20029;-38
2021/12/24 03:47:11;;;;;;;4.65;2.97;;;8.80;99.90;;;;;;5053262;28;20036;-39
2021/12/24 03:49:53;;;;;;;7.03;3.25;;;8.80;99.90;;;;;;5053116;28;20032;-38
2021/12/24 03:54:57;;;;;;;8.15;3.03;;;8.90;99.90;;;;;;5052993;28;20025;-38
2021/12/24 03:57:37;;;;;;;6.37;3.67;;;8.90;99.90;;;;;;5052963;28;20051;-38
2021/12/24 04:00:17;;;;;;;7.90;3.40;;;8.90;99.90;;;;;;5038439;28;20272;-38
2021/12/24 04:02:43;;;;;;;3.90;2.63;;;9.00;99.90;;;;;;5033030;28;20030;-38
2021/12/24 04:05:09;;;;;;;6.45;3.05;;;9.00;99.90;;;;;;5032996;28;20037;-39
2021/12/24 04:07:35;;;;;;;7.72;3.53;;;9.00;99.90;;;;;;5032413;28;20029;-38
2021/12/24 04:12:26;;;;;;;8.38;2.85;;;9.10;99.90;;;;;;5032996;28;20038;-38
2021/12/24 04:14:52;;;;;;;11.55;5.18;;;9.10;99.90;;;;;;5032481;28;20099;-37
2021/12/24 04:17:19;;;;;;;9.50;4.15;;;9.10;99.90;;;;;;5033033;28;20057;-37
2021/12/24 04:25:13;;;;;;;7.07;2.75;;;9.20;99.90;;;;;;5052963;28;20039;-38
2021/12/24 04:27:39;;;;;;;10.65;5.10;;;9.20;99.90;;;;;;5052190;28;20079;-37
2021/12/24 04:30:14;;;;;;;10.40;4.28;;;9.20;99.90;;;;;;5039215;28;20021;-38
2021/12/24 04:38:29;;;;;;;8.95;3.83;;;9.20;99.90;;;;;;5034516;28;20396;-37
2021/12/24 04:52:00;;;;;;;12.77;6.03;;;9.30;99.90;;;;;;5056407;28;20040;-38
2021/12/24 05:05:22;;;;;;;18.45;6.82;;;9.30;99.90;;;;;;5022977;28;20112;-38
2021/12/24 05:10:21;;;;;;;22.42;7.60;;;9.30;99.90;;;;;;5035617;28;20053;-38
2021/12/24 05:12:47;;;;;;;15.63;6.70;;;9.30;99.90;;;;;;5037642;28;20026;-37
2021/12/24 05:15:12;;;;;;;12.63;5.05;;;9.30;99.90;;;;;;5056000;28;20472;-39
2021/12/24 05:23:06;;;;;;;16.67;6.30;;;9.30;99.90;;;;;;5051276;28;20044;-37
2021/12/24 05:25:34;;;;;;;18.08;5.32;;;9.30;99.90;;;;;;5035794;28;20021;-37
2021/12/24 05:28:00;;;;;;;12.15;4.43;;;9.30;99.90;;;;;;5035779;28;20493;-38
2021/12/24 05:30:26;;;;;;;14.68;6.53;;;9.30;99.90;;;;;;5035232;28;20021;-38
2021/12/24 05:32:51;;;;;;;15.85;7.07;;;9.30;99.90;;;;;;5036139;28;20082;-38
2021/12/24 05:35:17;;;;;;;16.13;6.07;;;9.30;99.90;;;;;;5055475;28;20025;-39
2021/12/24 05:37:42;;;;;;;14.13;5.47;;;9.30;99.90;;;;;;5054504;28;20061;-39
2021/12/24 05:40:09;;;;;;;22.55;6.43;;;9.30;99.90;;;;;;5038604;28;20486;-38
2021/12/24 05:42:34;;;;;;;17.20;5.07;;;9.30;99.90;;;;;;5035343;28;20515;-38
2021/12/24 05:45:04;;;;;;;19.30;5.80;;;9.30;99.90;;;;;;5035115;28;20056;-38
2021/12/24 05:47:30;;;;;;;11.20;5.30;;;9.30;99.90;;;;;;5035395;28;20030;-37
2021/12/24 05:49:56;;;;;;;15.18;5.40;;;9.30;99.90;;;;;;5052162;28;20032;-38
2021/12/24 05:52:22;;;;;;;12.90;4.70;;;9.30;99.90;;;;;;5054815;28;20032;-38
2021/12/24 05:54:48;;;;;;;6.82;3.47;;;9.30;99.90;;;;;;5054618;28;20026;-38
2021/12/24 05:57:13;;;;;;;16.10;6.15;;;9.30;99.90;;;;;;5054683;28;20135;-38
2021/12/24 05:59:39;;;;;;;21.10;7.53;;;9.30;99.90;;;;;;5052454;28;20078;-38
2021/12/24 06:02:05;;;;;;;19.25;5.28;;;9.30;99.90;;;;;;5055137;28;20032;-38
2021/12/24 06:04:31;;;;;;;15.73;5.47;;;9.30;99.90;;;;;;5054938;28;20376;-39
2021/12/24 06:06:56;;;;;;;25.80;8.10;;;9.40;99.90;;;;;;5054538;28;20460;-38
2021/12/24 06:09:22;;;;;;;16.80;6.20;;;9.30;99.90;;;;;;5042608;28;20681;-38
2021/12/24 06:11:48;;;;;;;17.15;6.32;;;9.30;99.90;;;;;;5034961;28;20105;-39
2021/12/24 06:14:13;;;;;;;27.63;7.78;;;9.30;99.90;;;;;;5040758;28;20033;-39
2021/12/24 06:16:48;;;;;;;17.52;6.38;;;9.40;99.90;;;;;;5054666;28;20112;-38
2021/12/24 06:19:15;;;;;;;7.68;4.47;;;9.40;99.90;;;;;;5054439;28;20037;-38
2021/12/24 06:21:40;;;;;;;15.90;5.97;;;9.40;99.90;;;;;;5054448;28;20482;-39
2021/12/24 06:24:06;;;;;;;11.35;5.22;;;9.40;99.90;;;;;;5045958;28;20101;-38
2021/12/24 06:26:31;;;;;;;13.88;4.63;;;9.40;99.90;;;;;;5034204;28;20026;-39
2021/12/24 06:28:57;;;;;;;7.97;3.83;;;9.30;99.90;;;;;;5034707;28;20028;-40
2021/12/24 06:31:22;;;;;;;15.32;6.00;;;9.30;99.90;;;;;;5034511;28;20476;-38
2021/12/24 06:33:48;;;;;;;15.23;5.63;;;9.30;99.90;;;;;;5039608;28;20124;-38
2021/12/24 06:36:13;;;;;;;6.78;4.57;;;9.30;99.90;;;;;;5054438;28;20079;-38
2021/12/24 06:38:39;;;;;;;15.50;4.72;;;9.30;99.90;;;;;;5054309;28;20028;-39
2021/12/24 06:41:05;;;;;;;14.75;5.20;;;9.30;99.90;;;;;;5053960;28;20017;-38
2021/12/24 06:43:31;;;;;;;15.32;5.20;;;9.30;99.90;;;;;;5052482;28;20092;-39
2021/12/24 06:45:57;;;;;;;8.57;4.13;;;9.30;99.90;;;;;;5054198;28;20371;-38
2021/12/24 06:48:23;;;;;;;6.57;3.38;;;9.30;99.90;;;;;;5053770;28;20025;-38
2021/12/24 06:50:50;;;;;;;14.48;5.25;;;9.30;99.90;;;;;;5054113;28;20471;-39
2021/12/24 06:53:16;;;;;;;9.90;3.70;;;9.30;99.90;;;;;;5053739;28;20025;-38
2021/12/24 06:55:41;;;;;;;11.13;4.00;;;9.30;99.90;;;;;;5013528;28;20195;-39
2021/12/24 06:58:08;;;;;;;8.98;3.58;;;9.20;99.90;;;;;;5014312;28;20117;-41
2021/12/24 07:00:34;;;;;;;10.15;3.72;;;9.20;99.90;;;;;;5014224;28;20028;-37
2021/12/24 07:02:59;;;;;;;9.15;3.97;;;9.20;99.90;;;;;;5013719;28;20018;-39
2021/12/24 07:05:25;;;;;;;14.82;4.88;;;9.20;99.90;;;;;;5033234;28;20033;-37
2021/12/24 07:07:51;;;;;;;9.10;4.10;;;9.20;99.90;;;;;;5044139;28;20048;-38
2021/12/24 07:10:17;;;;;;;10.63;3.75;;;9.10;99.90;;;;;;5032804;28;20461;-38
2021/12/24 07:12:43;;;;;;;10.73;4.22;;;9.20;99.90;;;;;;5030274;28;20036;-37
2021/12/24 07:15:09;;;;;;;4.93;2.85;;;9.10;99.90;;;;;;5032409;28;20099;-39
2021/12/24 07:17:34;;;;;;;10.85;3.35;;;9.10;99.90;;;;;;5032339;28;20068;-41
2021/12/24 07:20:00;;;;;;;3.80;2.55;;;9.10;99.90;;;;;;5033131;28;20053;-38
2021/12/24 07:22:25;;;;;;;13.10;4.95;;;9.10;99.90;;;;;;5031074;28;20021;-39
2021/12/24 07:24:51;;;;;;;9.35;3.88;;;9.10;99.90;;;;;;5021888;28;20021;-38
2021/12/24 07:27:19;;;;;;;14.57;3.65;;;9.10;99.90;;;;;;5023382;28;20481;-38
2021/12/24 07:29:44;;;;;;;8.23;2.63;;;9.00;99.90;;;;;;5023334;28;20065;-40
2021/12/24 07:32:10;;;;;;;12.70;3.67;;;9.00;99.90;;;;;;5022759;28;20308;-40
2021/12/24 07:34:35;;;;;;;11.88;4.20;;;9.00;99.90;;;;;;5037414;28;20018;-39
2021/12/24 07:37:01;;;;;;;13.63;3.40;;;9.00;99.90;;;;;;5021992;28;20077;-39
2021/12/24 07:39:27;;;;;;;5.88;2.58;;;9.00;99.90;;;;;;5023860;28;20079;-39
2021/12/24 07:41:52;;;;;;;8.32;3.17;;;9.00;99.90;;;;;;5022137;28;20034;-39
2021/12/24 07:44:19;;;;;;;3.22;1.70;;;9.00;99.90;;;;;;5037602;28;20033;-38
2021/12/24 07:46:52;;;;;;;11.40;4.35;;;9.00;99.90;;;;;;5025495;28;20500;-39
2021/12/24 07:49:30;;;;;;;8.13;3.38;;;9.00;99.90;;;;;;5022696;28;20384;-40
2021/12/24 07:54:29;;;;;;;15.45;3.38;;;8.90;99.90;;;;;;5026011;28;20408;-39
2021/12/24 07:56:55;;;;;;;19.30;4.15;;;9.00;99.90;;;;;;5021920;28;20501;-40
2021/12/24 07:59:21;;;;;;;8.18;3.15;;;9.00;99.90;;;;;;5020539;28;20046;-39
2021/12/24 08:01:47;;;;;;;11.90;3.72;;;8.90;99.90;;;;;;5022519;28;20072;-39
2021/12/24 08:04:14;;;;;;;4.05;2.05;;;9.00;99.90;;;;;;5025490;28;20021;-39
2021/12/24 08:06:40;;;;;;;16.15;2.65;;;9.00;99.90;;;;;;5020191;28;20037;-40
2021/12/24 08:09:07;;;;;;;9.05;3.15;;;9.00;99.90;;;;;;5022805;28;20021;-41
2021/12/24 08:11:33;;;;;;;3.72;1.55;;;9.00;99.90;;;;;;5022084;28;20097;-39
2021/12/24 08:14:01;;;;;;;9.07;3.45;;;9.00;99.90;;;;;;5021969;28;20361;-40
2021/12/24 08:16:28;;;;;;;14.63;3.22;;;8.90;99.90;;;;;;5023015;28;20034;-40
2021/12/24 08:18:53;;;;;;;11.02;3.72;;;9.00;99.90;;;;;;5021228;28;20097;-40
2021/12/24 08:21:19;;;;;;;10.30;3.25;;;9.00;99.90;;;;;;5020907;28;20110;-40
2021/12/24 08:23:46;;;;;;;2.45;1.48;;;9.00;99.90;;;;;;5023264;28;20022;-39
2021/12/24 08:26:13;;;;;;;6.90;3.00;;;9.00;99.90;;;;;;5023704;28;20030;-39
2021/12/24 08:28:39;;;;;;;11.70;3.10;;;9.00;99.90;;;;;;5023850;28;20033;-40
2021/12/24 08:31:05;;;;;;;10.75;3.63;;;8.90;99.90;;;;;;5024098;28;20365;-39
2021/12/24 08:33:34;;;;;;;5.60;2.53;;;9.00;99.90;;;;;;5021409;28;20021;-40
2021/12/24 08:36:00;;;;;;;33.80;3.40;;;9.00;99.90;;;;;;5022394;28;20118;-39
2021/12/24 08:38:25;;;;;;;9.98;2.92;;;9.00;99.90;;;;;;5022717;28;20108;-39
2021/12/24 08:40:51;;;;;;;5.65;2.50;;;9.00;99.90;;;;;;5020727;28;20517;-40
2021/12/24 08:43:16;;;;;;;6.82;2.90;;;9.00;99.90;;;;;;5021224;28;20567;-41
2021/12/24 08:45:42;;;;;;;7.03;3.15;;;9.00;99.90;;;;;;5022304;28;20045;-41
2021/12/24 08:48:08;;;;;;;4.55;2.15;;;9.00;99.90;;;;;;5021207;28;20116;-39
2021/12/24 08:50:33;;;;;;;12.98;3.55;;;9.00;99.90;;;;;;5021392;28;20025;-39
2021/12/24 08:52:59;;;;;;;15.63;3.25;;;9.00;99.90;;;;;;5025712;28;20358;-39
2021/12/24 08:55:25;;;;;;;12.35;3.25;;;9.00;99.90;;;;;;5032261;28;20038;-40
2021/12/24 08:57:50;;;;;;;2.88;2.08;;;9.00;99.90;;;;;;5038935;28;20609;-41
2021/12/24 09:00:17;;;;;;;4.47;2.25;;;9.10;99.90;;;;;;5043464;28;20033;-39
2021/12/24 09:02:42;;;;;;;7.75;2.08;;;9.10;99.90;;;;;;5031060;28;20040;-39
2021/12/24 09:05:09;;;;;;;7.25;3.33;;;9.10;99.90;;;;;;5031881;28;20025;-42
2021/12/24 09:07:36;;;;;;;15.63;3.05;;;9.10;99.90;;;;;;5031381;28;20087;-40
2021/12/24 09:10:03;;;;;;;9.52;2.65;;;9.10;99.90;;;;;;5031098;28;20060;-40
2021/12/24 09:12:29;;;;;;;13.40;3.25;;;9.10;99.90;;;;;;5031920;28;20034;-40
2021/12/24 09:14:55;;;;;;;10.57;3.70;;;9.10;99.90;;;;;;5035355;28;20028;-39
2021/12/24 09:17:21;;;;;;;11.55;2.90;;;9.10;99.90;;;;;;5042561;28;20064;-41
2021/12/24 09:19:50;;;;;;;8.10;2.30;;;9.10;99.90;;;;;;5035013;28;20053;-39
2021/12/24 09:22:18;;;;;;;6.28;2.55;;;9.10;99.90;;;;;;5034677;28;20030;-40
2021/12/24 09:24:46;;;;;;;5.07;2.78;;;9.10;99.90;;;;;;5035131;28;20415;-39
2021/12/24 09:27:11;;;;;;;8.23;2.70;;;9.10;99.90;;;;;;5035282;28;20025;-39
2021/12/24 09:29:37;;;;;;;17.45;2.38;;;9.10;99.90;;;;;;5034487;28;20025;-39
2021/12/24 09:32:03;;;;;;;4.28;2.10;;;9.00;99.90;;;;;;5027728;28;20032;-40
2021/12/24 09:34:28;;;;;;;6.13;2.55;;;9.10;99.90;;;;;;5034102;28;20104;-40
2021/12/24 09:36:54;;;;;;;12.02;2.58;;;9.10;99.90;;;;;;5054229;28;20812;-39
2021/12/24 09:39:20;;;;;;;10.98;3.20;;;9.00;99.90;;;;;;5054994;28;20032;-41
2021/12/24 09:41:46;;;;;;;4.80;2.20;;;9.00;99.90;;;;;;5054692;28;20492;-39
2021/12/24 09:44:14;;;;;;;10.65;3.10;;;9.10;99.90;;;;;;5054194;28;20027;-39
2021/12/24 09:46:42;;;;;;;3.42;1.48;;;9.10;99.90;;;;;;5035701;28;20036;-39
2021/12/24 09:49:12;;;;;;;;;;;9.10;99.90;;;;;;5035194;28;20031;-39
2021/12/24 09:51:40;;;;;;;9.93;2.97;;;9.10;99.90;;;;;;5033929;28;19905;-40
2021/12/24 09:54:16;;;;;;;6.20;2.45;;;9.10;99.90;;;;;;5034576;28;20477;-40
2021/12/24 09:56:43;;;;;;;9.63;2.53;;;9.10;99.90;;;;;;5018519;28;20104;-39
2021/12/24 09:59:09;;;;;;;14.23;3.20;;;9.10;99.90;;;;;;5054015;28;20408;-40
2021/12/24 10:01:43;;;;;;;9.45;2.90;;;9.10;99.90;;;;;;5054152;28;20017;-41
2021/12/24 10:04:11;;;;;;;10.95;3.20;;;9.20;99.90;;;;;;5054358;28;20029;-39
2021/12/24 10:06:39;;;;;;;10.07;3.50;;;9.20;99.90;;;;;;5051981;28;20025;-41
2021/12/24 10:09:11;;;;;;;10.93;4.20;;;9.20;99.90;;;;;;5054391;28;20021;-41
2021/12/24 10:12:07;;;;;;;10.20;3.08;;;9.20;99.90;;;;;;5050577;28;20560;-40
2021/12/24 10:14:36;;;;;;;10.52;3.47;;;9.20;99.90;;;;;;5034429;28;20473;-40
2021/12/24 10:17:02;;;;;;;;;;;9.30;99.90;;;;;;5034590;28;20034;-40
2021/12/24 10:19:28;;;;;;;12.32;3.10;;;9.20;99.90;;;;;;5033879;28;20368;-40
2021/12/24 10:22:01;;;;;;;1.38;0.80;;;9.30;99.90;;;;;;5037872;28;20074;-40
2021/12/24 10:24:27;;;;;;;7.00;2.80;;;9.20;99.90;;;;;;5054202;28;20025;-42
2021/12/24 10:27:00;;;;;;;17.17;4.05;;;9.30;99.90;;;;;;5052764;28;20024;-41
2021/12/24 10:29:32;;;;;;;8.73;3.78;;;9.20;99.90;;;;;;5054113;28;20533;-40
2021/12/24 10:32:07;;;;;;;13.32;4.00;;;9.30;99.90;;;;;;5049261;28;20456;-40
2021/12/24 10:34:34;;;;;;;14.32;4.60;;;9.20;99.90;;;;;;5033461;28;20087;-38
2021/12/24 10:37:10;;;;;;;14.73;4.68;;;9.20;99.90;;;;;;5033791;28;20049;-40
2021/12/24 10:39:39;;;;;;;14.60;3.45;;;9.20;99.90;;;;;;5013553;28;20069;-43
2021/12/24 10:42:06;;;;;;;;;;;9.20;99.90;;;;;;5014457;28;20083;-40
2021/12/24 10:44:34;;;;;;;;;;;9.20;99.90;;;;;;5014579;28;19913;-39
2021/12/24 10:47:08;;;;;;;;;;;9.10;99.90;;;;;;5013734;28;19906;-40
2021/12/24 10:52:32;;;;;;;;;;;9.10;99.90;;;;;;5034108;28;20344;-39
2021/12/24 10:54:59;;;;;;;;;;;9.10;99.90;;;;;;5033090;28;19909;-40
2021/12/24 10:57:26;;;;;;;;;;;9.20;99.90;;;;;;5034048;28;19920;-39
2021/12/24 10:59:54;;;;;;;;;;;9.10;99.90;;;;;;5033953;28;20272;-39
2021/12/24 11:02:20;;;;;;;;;;;9.10;99.90;;;;;;5033334;28;19905;-41
2021/12/24 11:04:46;;;;;;;;;;;9.10;99.90;;;;;;5033726;28;20344;-40
2021/12/24 11:07:31;;;;;;;;;;;9.10;99.90;;;;;;5049373;28;19905;-40
2021/12/24 11:10:12;;;;;;;;;;;9.00;99.90;;;;;;5053243;28;19908;-40
2021/12/24 11:12:39;;;;;;;;;;;8.80;99.90;;;;;;5053331;28;19905;-41
2021/12/24 11:15:24;;;;;;;;;;;8.60;99.90;;;;;;5053062;28;20383;-40
2021/12/24 11:17:50;;;;;;;;;;;8.50;99.90;;;;;;5033236;28;19921;-40
2021/12/24 11:20:16;;;;;;;;;;;8.30;99.90;;;;;;5033624;28;19909;-41
2021/12/24 11:22:55;;;;;;;;;;;8.30;99.90;;;;;;5032858;28;19905;-41
2021/12/24 11:25:22;;;;;;;;;;;8.20;99.90;;;;;;5033409;28;20556;-41
2021/12/24 11:27:47;;;;;;;;;;;8.10;99.90;;;;;;5039005;28;19948;-41
2021/12/24 11:30:14;;;;;;;;;;;8.10;99.90;;;;;;5032905;28;19971;-41
2021/12/24 11:32:40;;;;;;;;;;;8.00;99.90;;;;;;5033092;28;20376;-42
2021/12/24 11:35:06;;;;;;;;;;;8.00;99.90;;;;;;5033315;28;19940;-41
2021/12/24 11:37:31;;;;;;;;;;;7.90;99.90;;;;;;5049050;28;19912;-43
2021/12/24 11:39:57;;;;;;;;;;;7.80;99.90;;;;;;5052449;28;19961;-40
2021/12/24 11:42:24;;;;;;;;;;;7.80;99.90;;;;;;5053034;28;20332;-39
2021/12/24 11:44:50;;;;;;;;;;;7.70;99.90;;;;;;5052429;28;19905;-41
2021/12/24 11:47:15;;;;;;;;;;;7.70;99.90;;;;;;5038123;28;20261;-40
2021/12/24 11:49:40;;;;;;;;;;;7.70;99.90;;;;;;5033090;28;20107;-41
2021/12/24 11:52:06;;;;;;;;;;;7.70;99.90;;;;;;5032493;28;19909;-40
2021/12/24 11:54:32;;;;;;;;;;;7.70;99.90;;;;;;5033050;28;20333;-40
2021/12/24 11:56:58;;;;;;;;;;;7.70;99.90;;;;;;5032733;28;19921;-39
2021/12/24 11:59:37;;;;;;;;;;;7.80;99.90;;;;;;5032190;28;20438;-41
2021/12/24 12:02:03;;;;;;;;;;;7.80;99.90;;;;;;5032564;28;19912;-40
2021/12/24 12:04:28;;;;;;;;;;;7.70;99.90;;;;;;5032141;28;19909;-41
2021/12/24 12:07:10;;;;;;;;;;;7.70;99.90;;;;;;5037959;28;19921;-40
2021/12/24 12:09:45;;;;;;;;;;;7.70;99.90;;;;;;5023413;28;19916;-41
2021/12/24 12:12:14;;;;;;;;;;;7.80;99.90;;;;;;5025363;28;19992;-41
2021/12/24 12:14:41;;;;;;;;;;;7.80;99.90;;;;;;5022872;28;19948;-41
2021/12/24 12:17:07;;;;;;;;;;;7.80;99.90;;;;;;5023903;28;19917;-41
2021/12/24 12:22:24;;;;;;;;;;;7.80;99.90;;;;;;5022328;28;19905;-41
2021/12/24 12:24:57;;;;;;;;;;;7.80;99.90;;;;;;5021994;28;19909;-41
2021/12/24 12:27:29;;;;;;;;;;;7.80;99.90;;;;;;5036506;28;19908;-44
2021/12/24 12:29:54;;;;;;;;;;;7.80;99.90;;;;;;5035536;28;20322;-41
2021/12/24 12:32:24;;;;;;;;;;;7.80;99.90;;;;;;5031815;28;19905;-42
2021/12/24 12:34:52;;;;;;;;;;;7.80;99.90;;;;;;5038058;28;19908;-40
2021/12/24 12:37:31;;;;;;;;;;;7.80;99.90;;;;;;5052426;28;19971;-41
2021/12/24 12:40:26;;;;;;;;;;;7.70;99.90;;;;;;5051641;28;19916;-40
2021/12/24 12:42:56;;;;;;;;;;;7.70;99.90;;;;;;5007849;28;19972;-40
2021/12/24 12:45:42;;;;;;;;;;;7.80;99.90;;;;;;5012605;28;19912;-40
2021/12/24 12:48:12;;;;;;;;;;;7.70;99.90;;;;;;5012008;28;19906;-42
2021/12/24 12:50:40;;;;;;;;;;;7.80;99.90;;;;;;5018219;28;19940;-43
2021/12/24 12:53:25;;;;;;;;;;;7.80;99.90;;;;;;5055826;28;19916;-41
2021/12/24 12:56:09;;;;;;;;;;;7.80;99.90;;;;;;5055589;28;20309;-41
2021/12/24 12:58:36;;;;;;;;;;;7.80;99.90;;;;;;5055660;28;19923;-40
2021/12/24 13:01:05;;;;;;;;;;;7.80;99.90;;;;;;5051791;28;19916;-39
2021/12/24 13:03:54;;;;;;;;;;;7.80;99.90;;;;;;5043739;28;19919;-41
2021/12/24 13:06:20;;;;;;;;;;;7.80;99.90;;;;;;5040918;28;19905;-40
2021/12/24 13:08:46;;;;;;;;;;;7.80;99.90;;;;;;5035676;28;19909;-41
2021/12/24 13:11:13;;;;;;;;;;;7.80;99.90;;;;;;5040044;28;19905;-40
2021/12/24 13:13:52;;;;;;;;;;;7.80;99.90;;;;;;5044125;28;19913;-42
2021/12/24 13:16:20;;;;;;;;;;;7.80;99.90;;;;;;5040141;28;20004;-41
2021/12/24 13:18:54;;;;;;;;;;;7.80;99.90;;;;;;5035536;28;19913;-40
2021/12/24 13:24:11;;;;;;;;;;;7.80;99.90;;;;;;5041660;28;19912;-41
2021/12/24 13:26:37;;;;;;;;;;;7.70;99.90;;;;;;5035904;28;19955;-43
2021/12/24 13:29:11;;;;;;;;;;;7.70;99.90;;;;;;5029260;28;19905;-40
2021/12/24 13:31:36;;;;;;;;;;;7.70;99.90;;;;;;5019201;28;19917;-41
2021/12/24 13:34:08;;;;;;;;;;;7.70;99.90;;;;;;5015858;28;19914;-40
2021/12/24 13:36:33;;;;;;;;;;;7.70;99.90;;;;;;5015151;28;19931;-41
2021/12/24 13:39:12;;;;;;;;;;;7.70;99.90;;;;;;5015531;28;20400;-41
2021/12/24 13:41:38;;;;;;;;;;;7.60;99.90;;;;;;5015105;28;19928;-41
2021/12/24 13:44:04;;;;;;;;;;;7.60;99.90;;;;;;5033114;28;20328;-40
2021/12/24 13:46:33;;;;;;;;;;;7.60;99.90;;;;;;5035099;28;20311;-40
2021/12/24 13:56:39;;;;;;;;;;;7.60;99.90;;;;;;5053709;28;19927;-40
2021/12/24 13:59:05;;;;;;;;;;;7.60;99.90;;;;;;5051871;28;19915;-39
2021/12/24 14:01:31;;;;;;;;;;;7.60;99.90;;;;;;5034176;28;20003;-41
2021/12/24 14:03:57;;;;;;;;;;;7.50;99.90;;;;;;5034205;28;20004;-41
2021/12/24 14:06:32;;;;;;;;;;;7.50;99.90;;;;;;5034851;28;19905;-41
2021/12/24 14:09:07;;;;;;;;;;;7.50;99.90;;;;;;5035588;28;20431;-40
2021/12/24 14:11:35;;;;;;;;;;;7.40;99.90;;;;;;5051904;28;20263;-41
2021/12/24 14:14:06;;;;;;;;;;;7.40;99.90;;;;;;5054399;28;19908;-40
2021/12/24 14:16:41;;;;;;;;;;;7.40;99.90;;;;;;5054698;28;19916;-39
2021/12/24 14:19:15;;;;;;;;;;;7.40;99.90;;;;;;5053520;28;19905;-41
2021/12/24 14:21:47;;;;;;;;;;;7.40;99.90;;;;;;5045962;28;19915;-40
2021/12/24 14:24:19;;;;;;;;;;;7.40;99.90;;;;;;5040486;28;20003;-39
2021/12/24 14:26:51;;;;;;;;;;;7.40;99.90;;;;;;5042867;28;19913;-40
2021/12/24 14:29:24;;;;;;;;;;;7.40;99.90;;;;;;5034406;28;19905;-41
2021/12/24 14:31:50;;;;;;;;;;;7.40;99.90;;;;;;5033569;28;19916;-40
2021/12/24 14:34:31;;;;;;;;;;;7.40;99.90;;;;;;5035452;28;19905;-40
2021/12/24 14:37:17;;;;;;;;;;;7.40;99.90;;;;;;5041266;28;19927;-40
2021/12/24 14:39:44;;;;;;;;;;;7.30;99.90;;;;;;5013339;28;20028;-40
2021/12/24 14:42:18;;;;;;;;;;;7.40;99.90;;;;;;5022446;28;19905;-41
2021/12/24 14:44:45;;;;;;;;;;;7.40;99.90;;;;;;5033679;28;19912;-40
2021/12/24 14:47:12;;;;;;;;;;;7.40;99.90;;;;;;5033596;28;19905;-39
2021/12/24 14:49:38;;;;;;;;;;;7.40;99.90;;;;;;5034139;28;19905;-39
2021/12/24 14:52:23;;;;;;;;;;;7.40;99.90;;;;;;5031842;28;20004;-41
2021/12/24 14:55:07;;;;;;;;;;;7.30;99.90;;;;;;5021467;28;19906;-39
2021/12/24 14:57:33;;;;;;;;;;;7.40;99.90;;;;;;5019846;28;20390;-39
2021/12/24 15:00:09;;;;;;;;;;;7.30;99.90;;;;;;5035886;28;20023;-40
2021/12/24 15:02:41;;;;;;;;;;;7.30;99.90;;;;;;5040147;28;20237;-42
2021/12/24 15:05:07;;;;;;;;;;;7.30;99.90;;;;;;5033875;28;19905;-40
2021/12/24 15:07:32;;;;;;;;;;;7.20;99.90;;;;;;5033067;28;20280;-40
2021/12/24 15:10:08;;;;;;;;;;;7.20;99.90;;;;;;5033459;28;19905;-40
2021/12/24 15:12:39;;;;;;;;;;;7.20;99.90;;;;;;5033517;28;19913;-40
2021/12/24 15:15:06;;;;;;;;;;;7.10;99.90;;;;;;5032567;28;19992;-40
2021/12/24 15:17:41;;;;;;;;;;;7.10;99.90;;;;;;5037175;28;19974;-40
2021/12/24 15:20:07;;;;;;;;;;;7.10;99.90;;;;;;5041168;28;20298;-39
2021/12/24 15:22:33;;;;;;;;;;;7.10;99.90;;;;;;5037165;28;19952;-39
2021/12/24 15:24:58;;;;;;;;;;;7.00;99.90;;;;;;5038605;28;20368;-41
2021/12/24 15:27:31;;;;;;;;;;;7.00;99.90;;;;;;5029594;28;19935;-41